Time;durP1;ratioP1;P1;durP2;ratioP2;P2;SDS_P1;SDS_P2;PMS_P1;PMS_P2;Temp;Humidity;BMP_temperature;BMP_pressure;BME280_temperature;BME280_humidity;BME280_pressure;Samples;Min_cycle;Max_cycle;Signal;HPM_P1;HPM_P2
2021/04/14 00:00:32;;;;;;;3.90;2.10;;;16.40;94.50;;;;;;5071852;28;20044;-75
2021/04/14 00:02:59;;;;;;;3.38;2.38;;;16.40;94.50;;;;;;5071903;28;20024;-74
2021/04/14 00:05:34;;;;;;;4.82;2.45;;;16.40;94.40;;;;;;5071885;28;20023;-74
2021/04/14 00:08:00;;;;;;;7.03;2.83;;;16.40;94.60;;;;;;5071992;28;20032;-73
2021/04/14 00:10:28;;;;;;;4.68;2.92;;;16.40;94.70;;;;;;5071851;28;20074;-74
2021/04/14 00:12:54;;;;;;;4.30;2.47;;;16.40;94.80;;;;;;5071718;28;20548;-73
2021/04/14 00:15:27;;;;;;;5.22;2.60;;;16.40;95.00;;;;;;5071755;28;20060;-73
2021/04/14 00:17:53;;;;;;;5.45;2.55;;;16.40;94.80;;;;;;5071912;28;20027;-73
2021/04/14 00:20:19;;;;;;;3.33;2.22;;;16.40;95.10;;;;;;5071523;28;20369;-73
2021/04/14 00:22:44;;;;;;;7.63;2.65;;;16.40;95.10;;;;;;5071987;28;20040;-74
2021/04/14 00:25:15;;;;;;;4.63;2.33;;;16.30;95.20;;;;;;5071721;28;20025;-74
2021/04/14 00:27:41;;;;;;;4.03;2.53;;;16.40;95.20;;;;;;5072102;28;20074;-73
2021/04/14 00:30:08;;;;;;;4.03;2.55;;;16.30;95.20;;;;;;5071679;28;20111;-75
2021/04/14 00:32:35;;;;;;;4.90;2.65;;;16.30;95.40;;;;;;5071496;28;20473;-76
2021/04/14 00:35:01;;;;;;;4.60;2.70;;;16.30;95.70;;;;;;5071616;28;20074;-75
2021/04/14 00:37:27;;;;;;;4.22;2.40;;;16.30;95.70;;;;;;5071571;28;20028;-75
2021/04/14 00:39:53;;;;;;;3.45;2.30;;;16.30;95.50;;;;;;5071483;28;20029;-75
2021/04/14 00:42:18;;;;;;;3.40;2.13;;;16.30;95.80;;;;;;5072970;28;20098;-75
2021/04/14 00:44:44;;;;;;;3.33;2.33;;;16.30;96.10;;;;;;5075755;28;20020;-75
2021/04/14 00:47:09;;;;;;;10.57;2.67;;;16.30;96.40;;;;;;5075524;28;20055;-75
2021/04/14 00:49:35;;;;;;;3.60;2.25;;;16.30;96.80;;;;;;5075437;28;20013;-74
2021/04/14 00:52:01;;;;;;;7.50;2.42;;;16.30;96.50;;;;;;5075292;28;20025;-75
2021/04/14 00:54:26;;;;;;;5.38;2.42;;;16.30;96.80;;;;;;5075374;28;20056;-74
2021/04/14 00:56:52;;;;;;;3.90;2.65;;;16.20;96.50;;;;;;5075301;28;20025;-74
2021/04/14 00:59:17;;;;;;;3.85;2.55;;;16.30;96.70;;;;;;5075488;28;20439;-75
2021/04/14 01:01:43;;;;;;;3.47;2.60;;;16.20;96.70;;;;;;5074257;28;20032;-75
2021/04/14 01:04:09;;;;;;;4.05;2.67;;;16.20;96.60;;;;;;5075132;28;20525;-74
2021/04/14 01:06:34;;;;;;;4.65;2.50;;;16.20;96.70;;;;;;5075045;28;20103;-74
2021/04/14 01:09:00;;;;;;;3.20;2.13;;;16.20;96.50;;;;;;5075037;28;20021;-74
2021/04/14 01:11:28;;;;;;;5.00;2.85;;;16.20;96.60;;;;;;5075072;28;20154;-75
2021/04/14 01:13:54;;;;;;;5.53;2.55;;;16.10;96.60;;;;;;5075157;28;20103;-75
2021/04/14 01:16:20;;;;;;;3.17;2.50;;;16.10;96.70;;;;;;5074909;28;20039;-75
2021/04/14 01:18:46;;;;;;;3.67;2.20;;;16.10;97.10;;;;;;5075192;28;20020;-75
2021/04/14 01:21:19;;;;;;;3.40;2.50;;;16.10;96.80;;;;;;5074741;28;20047;-74
2021/04/14 01:23:44;;;;;;;5.18;2.80;;;16.10;97.20;;;;;;5075099;28;20034;-75
2021/04/14 01:26:10;;;;;;;3.03;2.70;;;16.10;96.90;;;;;;5074729;28;20028;-75
2021/04/14 01:28:41;;;;;;;4.50;2.60;;;16.10;97.60;;;;;;5074585;28;20029;-76
2021/04/14 01:31:09;;;;;;;3.42;2.30;;;16.10;97.40;;;;;;5074798;28;20021;-76
2021/04/14 01:33:35;;;;;;;4.22;2.30;;;16.10;97.90;;;;;;5074667;28;20032;-75
2021/04/14 01:36:03;;;;;;;4.10;2.50;;;16.00;97.60;;;;;;5074715;28;20029;-76
2021/04/14 01:38:29;;;;;;;6.78;2.33;;;16.00;97.40;;;;;;5074555;28;20028;-75
2021/04/14 01:40:56;;;;;;;4.80;2.88;;;16.00;97.90;;;;;;5074276;28;20041;-74
2021/04/14 01:43:22;;;;;;;3.30;2.42;;;16.00;98.60;;;;;;5074465;28;20032;-74
2021/04/14 01:45:48;;;;;;;7.15;3.00;;;16.00;97.80;;;;;;5074665;28;20028;-74
2021/04/14 01:48:15;;;;;;;2.83;2.30;;;16.00;98.10;;;;;;5074450;28;20411;-75
2021/04/14 01:50:41;;;;;;;3.28;2.53;;;16.00;98.00;;;;;;5074350;28;20036;-75
2021/04/14 01:53:09;;;;;;;3.67;2.60;;;16.00;98.00;;;;;;5073876;28;20020;-74
2021/04/14 01:55:35;;;;;;;4.63;2.75;;;16.00;97.90;;;;;;5074306;28;20078;-75
2021/04/14 01:58:01;;;;;;;4.60;2.80;;;15.90;98.00;;;;;;5074168;28;20099;-75
2021/04/14 02:00:34;;;;;;;4.65;2.55;;;16.00;98.00;;;;;;5074092;28;20111;-75
2021/04/14 02:03:01;;;;;;;2.78;2.40;;;15.90;98.10;;;;;;5074152;28;20040;-75
2021/04/14 02:05:30;;;;;;;3.78;2.83;;;15.90;98.00;;;;;;5074242;28;20428;-75
2021/04/14 02:07:56;;;;;;;3.03;2.53;;;15.90;98.20;;;;;;5073991;28;20082;-75
2021/04/14 02:10:25;;;;;;;3.35;2.80;;;15.90;98.00;;;;;;5073972;28;20476;-75
2021/04/14 02:12:51;;;;;;;4.28;2.58;;;15.90;98.00;;;;;;5074214;28;20029;-74
2021/04/14 02:15:23;;;;;;;4.35;2.50;;;15.90;98.20;;;;;;5074188;28;20027;-74
2021/04/14 02:17:48;;;;;;;4.07;2.53;;;15.90;98.10;;;;;;5074101;28;20020;-75
2021/04/14 02:20:15;;;;;;;4.55;2.42;;;15.90;98.10;;;;;;5073443;28;20040;-73
2021/04/14 02:22:41;;;;;;;3.97;2.55;;;15.80;98.30;;;;;;5073701;28;20033;-76
2021/04/14 02:25:09;;;;;;;4.28;2.63;;;15.80;98.10;;;;;;5073700;28;20017;-75
2021/04/14 02:27:35;;;;;;;3.72;2.58;;;15.80;98.10;;;;;;5073610;28;20507;-73
2021/04/14 02:30:01;;;;;;;3.75;2.60;;;15.80;98.00;;;;;;5073452;28;20029;-75
2021/04/14 02:32:27;;;;;;;3.55;2.42;;;15.80;98.10;;;;;;5073467;28;20029;-74
2021/04/14 02:34:52;;;;;;;6.43;3.05;;;15.80;98.00;;;;;;5073800;28;20021;-74
2021/04/14 02:37:18;;;;;;;3.63;2.75;;;15.80;97.80;;;;;;5073748;28;20036;-75
2021/04/14 02:39:44;;;;;;;3.63;2.63;;;15.80;98.00;;;;;;5073405;28;20028;-75
2021/04/14 02:42:10;;;;;;;2.90;2.50;;;15.70;98.20;;;;;;5071894;28;20040;-75
2021/04/14 02:44:35;;;;;;;4.60;2.55;;;15.70;98.10;;;;;;5073363;28;20025;-75
2021/04/14 02:47:01;;;;;;;3.38;2.40;;;15.70;98.00;;;;;;5073171;28;20031;-75
2021/04/14 02:49:26;;;;;;;3.35;2.40;;;15.70;98.10;;;;;;5072034;28;20039;-73
2021/04/14 02:51:53;;;;;;;3.85;2.90;;;15.70;98.00;;;;;;5073308;28;20024;-75
2021/04/14 02:54:19;;;;;;;2.67;2.30;;;15.70;98.20;;;;;;5073145;28;20029;-73
2021/04/14 02:56:45;;;;;;;3.15;2.50;;;15.70;98.30;;;;;;5073078;28;20095;-74
2021/04/14 02:59:11;;;;;;;4.13;2.78;;;15.70;97.90;;;;;;5072925;28;20063;-73
2021/04/14 03:01:37;;;;;;;3.40;2.40;;;15.60;98.20;;;;;;5072767;28;20038;-73
2021/04/14 03:04:03;;;;;;;3.90;2.70;;;15.60;98.50;;;;;;5072409;28;20027;-75
2021/04/14 03:06:28;;;;;;;5.30;2.70;;;15.60;98.30;;;;;;5072383;28;20036;-74
2021/04/14 03:08:54;;;;;;;3.13;2.50;;;15.60;98.30;;;;;;5073014;28;20020;-74
2021/04/14 03:11:20;;;;;;;3.55;2.60;;;15.60;98.30;;;;;;5073065;28;20036;-74
2021/04/14 03:13:46;;;;;;;6.15;2.70;;;15.60;98.50;;;;;;5072718;28;20024;-74
2021/04/14 03:16:12;;;;;;;3.20;2.40;;;15.60;98.90;;;;;;5072588;28;20029;-74
2021/04/14 03:18:37;;;;;;;5.35;2.38;;;15.60;98.60;;;;;;5072496;28;20020;-74
2021/04/14 03:21:03;;;;;;;5.53;2.72;;;15.50;98.50;;;;;;5072391;28;20032;-73
2021/04/14 03:23:29;;;;;;;3.97;2.67;;;15.50;98.50;;;;;;5072667;28;20472;-73
2021/04/14 03:25:54;;;;;;;4.53;2.90;;;15.50;98.70;;;;;;5072754;28;20077;-73
2021/04/14 03:28:20;;;;;;;3.28;2.30;;;15.50;98.60;;;;;;5072366;28;20032;-73
2021/04/14 03:30:46;;;;;;;3.15;2.45;;;15.50;98.90;;;;;;5072420;28;20052;-74
2021/04/14 03:33:12;;;;;;;3.35;2.60;;;15.50;98.30;;;;;;5072332;28;20020;-73
2021/04/14 03:35:38;;;;;;;3.03;2.35;;;15.50;98.20;;;;;;5072426;28;20464;-73
2021/04/14 03:38:04;;;;;;;5.38;2.72;;;15.50;98.60;;;;;;5072419;28;20033;-74
2021/04/14 03:40:31;;;;;;;7.05;2.85;;;15.50;99.10;;;;;;5072247;28;20025;-75
2021/04/14 03:42:57;;;;;;;4.78;2.28;;;15.50;99.60;;;;;;5072366;28;20429;-74
2021/04/14 03:45:29;;;;;;;6.70;2.63;;;15.40;98.80;;;;;;5072463;28;20021;-74
2021/04/14 03:47:55;;;;;;;7.07;2.75;;;15.40;98.80;;;;;;5072324;28;20111;-73
2021/04/14 03:50:21;;;;;;;5.32;2.63;;;15.40;98.70;;;;;;5072038;28;20074;-74
2021/04/14 03:52:48;;;;;;;4.82;2.63;;;15.40;98.40;;;;;;5072067;28;20024;-74
2021/04/14 03:55:16;;;;;;;5.63;2.80;;;15.40;98.50;;;;;;5072023;28;20465;-74
2021/04/14 03:57:41;;;;;;;3.10;2.45;;;15.40;98.80;;;;;;5071804;28;20035;-75
2021/04/14 04:00:08;;;;;;;6.20;2.67;;;15.40;98.30;;;;;;5071805;28;20025;-75
2021/04/14 04:02:34;;;;;;;5.30;2.78;;;15.30;98.20;;;;;;5071852;28;20028;-75
2021/04/14 04:05:00;;;;;;;3.65;2.75;;;15.30;98.00;;;;;;5071881;28;20036;-72
2021/04/14 04:07:25;;;;;;;3.08;2.30;;;15.30;98.10;;;;;;5072115;28;20024;-75
2021/04/14 04:09:51;;;;;;;3.60;2.60;;;15.30;97.90;;;;;;5071826;28;20461;-75
2021/04/14 04:12:16;;;;;;;3.72;2.60;;;15.30;97.80;;;;;;5071811;28;20070;-75
2021/04/14 04:14:51;;;;;;;4.75;2.50;;;15.30;97.80;;;;;;5071798;28;20530;-75
2021/04/14 04:17:19;;;;;;;3.45;2.33;;;15.20;97.80;;;;;;5071541;28;20074;-74
2021/04/14 04:19:45;;;;;;;4.05;2.70;;;15.20;97.70;;;;;;5071664;28;20048;-75
2021/04/14 04:22:18;;;;;;;4.53;2.65;;;15.20;97.60;;;;;;5070303;28;20518;-75
2021/04/14 04:24:44;;;;;;;3.28;2.40;;;15.20;97.60;;;;;;5071745;28;20054;-75
2021/04/14 04:27:09;;;;;;;3.50;2.10;;;15.20;97.60;;;;;;5071649;28;20024;-75
2021/04/14 04:29:35;;;;;;;5.13;2.42;;;15.20;97.60;;;;;;5071594;28;20028;-75
2021/04/14 04:32:00;;;;;;;3.33;2.47;;;15.10;97.60;;;;;;5071602;28;20108;-75
2021/04/14 04:34:26;;;;;;;2.97;2.33;;;15.10;97.50;;;;;;5071894;28;20098;-75
2021/04/14 04:36:52;;;;;;;2.88;2.30;;;15.20;97.90;;;;;;5071576;28;20025;-75
2021/04/14 04:39:19;;;;;;;6.70;2.78;;;15.20;97.80;;;;;;5071563;28;20552;-75
2021/04/14 04:41:46;;;;;;;3.70;2.35;;;15.10;97.50;;;;;;5071412;28;20170;-75
2021/04/14 04:44:12;;;;;;;3.40;2.50;;;15.10;97.50;;;;;;5071514;28;20524;-74
2021/04/14 04:46:38;;;;;;;3.15;2.20;;;15.10;97.90;;;;;;5071514;28;20135;-74
2021/04/14 04:49:03;;;;;;;4.63;2.50;;;15.10;97.90;;;;;;5071394;28;20024;-75
2021/04/14 04:51:29;;;;;;;4.47;2.50;;;15.10;97.70;;;;;;5071807;28;20032;-74
2021/04/14 04:53:56;;;;;;;4.60;2.63;;;15.10;98.00;;;;;;5071367;28;20427;-74
2021/04/14 04:56:21;;;;;;;3.80;2.85;;;15.10;97.70;;;;;;5071366;28;20032;-74
2021/04/14 04:58:47;;;;;;;2.75;2.25;;;15.10;97.90;;;;;;5071292;28;20407;-74
2021/04/14 05:01:13;;;;;;;5.05;2.53;;;15.10;97.80;;;;;;5071283;28;20468;-74
2021/04/14 05:03:39;;;;;;;3.70;2.50;;;15.10;97.50;;;;;;5071500;28;20033;-74
2021/04/14 05:06:05;;;;;;;8.30;2.47;;;15.10;98.00;;;;;;5071256;28;20469;-74
2021/04/14 05:08:30;;;;;;;3.80;2.70;;;15.10;97.70;;;;;;5071644;28;20032;-75
2021/04/14 05:10:56;;;;;;;4.88;2.60;;;15.00;97.60;;;;;;5071455;28;20044;-75
2021/04/14 05:13:22;;;;;;;3.30;2.33;;;15.00;97.80;;;;;;5071808;28;20048;-74
2021/04/14 05:15:47;;;;;;;3.92;2.35;;;15.00;97.60;;;;;;5071431;28;20020;-74
2021/04/14 05:18:14;;;;;;;7.25;2.80;;;15.00;97.70;;;;;;5071352;28;20034;-73
2021/04/14 05:20:40;;;;;;;3.20;2.58;;;15.00;98.10;;;;;;5071133;28;20096;-73
2021/04/14 05:23:07;;;;;;;5.15;2.70;;;15.00;97.80;;;;;;5071299;28;20464;-74
2021/04/14 05:25:37;;;;;;;4.10;2.67;;;15.00;97.70;;;;;;5071264;28;20361;-73
2021/04/14 05:28:08;;;;;;;4.70;2.90;;;14.90;97.90;;;;;;5072023;28;20115;-74
2021/04/14 05:30:35;;;;;;;4.85;2.35;;;14.90;97.50;;;;;;5074923;28;20028;-73
2021/04/14 05:33:01;;;;;;;5.55;2.85;;;15.00;97.70;;;;;;5075101;28;20028;-73
2021/04/14 05:35:27;;;;;;;3.28;2.53;;;14.90;97.50;;;;;;5074783;28;20036;-73
2021/04/14 05:37:53;;;;;;;4.35;2.60;;;14.90;97.50;;;;;;5075360;28;20029;-73
2021/04/14 05:40:19;;;;;;;3.42;2.42;;;14.90;97.30;;;;;;5074589;28;20067;-73
2021/04/14 05:42:47;;;;;;;4.10;2.92;;;14.90;97.30;;;;;;5074590;28;20032;-73
2021/04/14 05:45:16;;;;;;;3.08;2.50;;;14.90;97.30;;;;;;5074584;28;20028;-74
2021/04/14 05:47:43;;;;;;;5.38;2.58;;;14.80;97.20;;;;;;5074420;28;20362;-74
2021/04/14 05:50:11;;;;;;;7.18;2.55;;;14.90;98.00;;;;;;5074529;28;20028;-74
2021/04/14 05:52:37;;;;;;;3.95;2.20;;;14.90;98.20;;;;;;5069818;28;20028;-74
2021/04/14 05:55:04;;;;;;;7.38;2.58;;;14.90;97.90;;;;;;5073064;28;20028;-74
2021/04/14 05:57:30;;;;;;;5.78;2.70;;;14.90;97.80;;;;;;5074573;28;20585;-74
2021/04/14 05:59:55;;;;;;;4.57;2.50;;;14.90;96.40;;;;;;5074325;28;20037;-76
2021/04/14 06:02:21;;;;;;;12.27;3.50;;;14.80;96.50;;;;;;5073421;28;20062;-72
2021/04/14 06:04:47;;;;;;;16.30;4.03;;;14.80;98.80;;;;;;5074203;28;20033;-72
2021/04/14 06:07:12;;;;;;;12.07;5.72;;;14.80;95.20;;;;;;5074186;28;20028;-73
2021/04/14 06:09:38;;;;;;;17.73;6.97;;;14.20;92.50;;;;;;5073014;28;20377;-71
2021/04/14 06:12:04;;;;;;;12.48;7.43;;;13.60;91.30;;;;;;5074170;28;20017;-73
2021/04/14 06:14:30;;;;;;;11.43;7.57;;;13.30;90.80;;;;;;5074117;28;20209;-73
2021/04/14 06:16:55;;;;;;;15.50;7.88;;;13.10;90.50;;;;;;5074001;28;20029;-71
2021/04/14 06:19:21;;;;;;;8.23;4.88;;;13.00;91.00;;;;;;5074019;28;20489;-76
2021/04/14 06:21:46;;;;;;;10.50;4.00;;;13.60;91.00;;;;;;5056982;28;20048;-74
2021/04/14 06:24:13;;;;;;;11.63;3.88;;;14.10;90.40;;;;;;5053797;28;20021;-75
2021/04/14 06:26:46;;;;;;;5.68;3.35;;;14.40;89.40;;;;;;5053757;28;20543;-77
2021/04/14 06:29:13;;;;;;;7.32;3.90;;;14.60;88.40;;;;;;5053905;28;20032;-76
2021/04/14 06:31:42;;;;;;;6.50;3.53;;;14.70;87.60;;;;;;5050335;28;20051;-76
2021/04/14 06:34:15;;;;;;;5.22;3.72;;;14.80;87.90;;;;;;5066601;28;20476;-77
2021/04/14 06:36:46;;;;;;;5.63;4.13;;;14.90;87.30;;;;;;5073328;28;20444;-75
2021/04/14 06:39:14;;;;;;;7.40;4.63;;;15.00;87.40;;;;;;5081085;28;20157;-77
2021/04/14 06:44:41;;;;;;;9.50;4.93;;;15.00;85.60;;;;;;5089805;28;20032;-76
2021/04/14 06:47:24;;;;;;;10.45;5.10;;;15.00;85.20;;;;;;5093129;28;20024;-76
2021/04/14 06:49:56;;;;;;;5.95;4.88;;;15.00;84.70;;;;;;5088310;28;20035;-76
2021/04/14 06:52:51;;;;;;;6.85;5.22;;;15.00;84.30;;;;;;5063445;28;20021;-73
2021/04/14 06:55:25;;;;;;;9.65;5.28;;;15.10;83.90;;;;;;5072449;28;20020;-72
2021/04/14 06:57:58;;;;;;;7.93;5.03;;;15.10;83.40;;;;;;5072547;28;20104;-62
2021/04/14 07:00:28;;;;;;;6.77;4.70;;;15.30;84.10;;;;;;5072406;28;20055;-72
2021/04/14 07:03:05;;;;;;;6.68;4.90;;;15.40;83.30;;;;;;5072188;28;20025;-74
2021/04/14 07:05:35;;;;;;;5.10;4.22;;;15.50;83.40;;;;;;5072204;28;20099;-69
2021/04/14 07:08:06;;;;;;;6.30;4.38;;;15.60;83.20;;;;;;5072575;28;20059;-71
2021/04/14 07:10:33;;;;;;;6.80;4.47;;;15.80;83.00;;;;;;5072347;28;20024;-69
2021/04/14 07:13:02;;;;;;;6.45;4.05;;;16.10;82.60;;;;;;5071268;28;20029;-70
2021/04/14 07:15:28;;;;;;;7.82;4.05;;;16.30;85.00;;;;;;5069385;28;20048;-67
2021/04/14 07:18:18;;;;;;;11.32;4.00;;;16.40;83.50;;;;;;5070528;28;20035;-65
2021/04/14 07:20:49;;;;;;;6.28;3.60;;;16.50;83.60;;;;;;5063375;28;20024;-67
2021/04/14 07:23:36;;;;;;;9.02;4.03;;;16.50;84.50;;;;;;5071870;28;20089;-69
2021/04/14 07:26:05;;;;;;;7.72;3.42;;;16.60;84.30;;;;;;5072005;28;20051;-69
2021/04/14 07:28:53;;;;;;;6.57;3.72;;;16.70;84.40;;;;;;5071669;28;20033;-68
2021/04/14 07:31:46;;;;;;;7.28;3.50;;;16.80;84.80;;;;;;5071984;28;20020;-69
2021/04/14 07:34:27;;;;;;;5.28;3.42;;;16.80;85.50;;;;;;5072209;28;20610;-70
2021/04/14 07:37:05;;;;;;;6.55;3.75;;;16.80;86.10;;;;;;5072469;28;20028;-65
2021/04/14 07:39:50;;;;;;;5.60;3.63;;;16.80;87.80;;;;;;5070299;28;20439;-68
2021/04/14 07:42:58;;;;;;;6.93;3.10;;;16.70;88.20;;;;;;5072395;28;20169;-72
2021/04/14 07:45:29;;;;;;;5.60;3.40;;;16.60;88.40;;;;;;5071809;28;20112;-70
2021/04/14 07:48:05;;;;;;;5.20;3.10;;;16.60;88.10;;;;;;5072302;28;20107;-70
2021/04/14 07:50:58;;;;;;;6.75;3.15;;;16.60;88.90;;;;;;5071938;28;20016;-70
2021/04/14 07:53:24;;;;;;;7.85;3.35;;;16.60;89.30;;;;;;5072137;28;20051;-68
2021/04/14 07:56:13;;;;;;;5.68;3.33;;;16.60;90.00;;;;;;5059531;28;20568;-68
2021/04/14 07:58:42;;;;;;;5.05;3.20;;;16.60;90.20;;;;;;5052396;28;20017;-67
2021/04/14 08:01:24;;;;;;;5.50;3.25;;;16.60;91.20;;;;;;5062705;28;20051;-70
2021/04/14 08:03:51;;;;;;;4.07;2.95;;;16.60;89.80;;;;;;5072127;28;20362;-68
2021/04/14 08:06:29;;;;;;;5.72;3.40;;;16.60;89.80;;;;;;5072004;28;20032;-69
2021/04/14 08:08:55;;;;;;;5.00;2.95;;;16.60;89.30;;;;;;5072074;28;20013;-69
2021/04/14 08:11:32;;;;;;;5.28;2.88;;;16.60;88.70;;;;;;5072064;28;20036;-69
2021/04/14 08:14:10;;;;;;;6.30;2.95;;;16.60;89.00;;;;;;5072025;28;20020;-69
2021/04/14 08:16:40;;;;;;;5.57;3.10;;;16.60;88.60;;;;;;5071839;28;20032;-70
2021/04/14 08:19:17;;;;;;;5.43;2.85;;;16.60;88.80;;;;;;5072218;28;20016;-68
2021/04/14 08:21:59;;;;;;;4.50;3.15;;;16.70;88.70;;;;;;5071685;28;20033;-68
2021/04/14 08:24:31;;;;;;;5.60;2.90;;;16.70;87.40;;;;;;5071829;28;20526;-69
2021/04/14 08:27:00;;;;;;;4.50;2.92;;;16.70;87.10;;;;;;5071682;28;20032;-69
2021/04/14 08:29:26;;;;;;;4.50;2.88;;;16.70;87.50;;;;;;5071852;28;20458;-69
2021/04/14 08:31:53;;;;;;;5.72;3.40;;;16.70;86.80;;;;;;5071188;28;20031;-69
2021/04/14 08:34:28;;;;;;;5.72;3.10;;;16.70;87.00;;;;;;5071887;28;20388;-67
2021/04/14 08:37:03;;;;;;;3.53;2.67;;;17.50;89.20;;;;;;5071157;28;20070;-67
2021/04/14 08:39:39;;;;;;;5.05;2.67;;;18.90;86.50;;;;;;5071358;28;20194;-65
2021/04/14 08:42:20;;;;;;;4.10;2.45;;;20.10;84.10;;;;;;5069612;28;20075;-64
2021/04/14 08:44:48;;;;;;;4.25;2.53;;;20.00;84.80;;;;;;5071514;28;20046;-68
2021/04/14 08:47:22;;;;;;;3.38;2.50;;;19.40;87.10;;;;;;5071268;28;20028;-69
2021/04/14 08:49:52;;;;;;;7.10;2.38;;;19.50;86.90;;;;;;5071196;28;20021;-68
2021/04/14 08:52:21;;;;;;;4.68;2.28;;;20.20;85.40;;;;;;5071666;28;20031;-67
2021/04/14 08:54:47;;;;;;;4.25;2.40;;;19.90;87.10;;;;;;5071444;28;20029;-66
2021/04/14 08:57:14;;;;;;;5.03;2.92;;;19.50;87.90;;;;;;5070713;28;20091;-66
2021/04/14 08:59:40;;;;;;;5.38;2.35;;;20.20;87.40;;;;;;5071405;28;20040;-65
2021/04/14 09:02:09;;;;;;;3.88;2.35;;;20.40;87.00;;;;;;5071148;28;20039;-63
2021/04/14 09:04:35;;;;;;;4.43;2.20;;;20.00;88.70;;;;;;5074744;28;20024;-63
2021/04/14 09:07:04;;;;;;;2.75;1.90;;;19.80;89.10;;;;;;5075216;28;20031;-65
2021/04/14 09:09:41;;;;;;;5.07;2.38;;;20.60;87.70;;;;;;5075047;28;20052;-64
2021/04/14 09:12:08;;;;;;;3.78;2.00;;;20.60;90.10;;;;;;5075290;28;20023;-64
2021/04/14 09:14:35;;;;;;;4.22;2.00;;;20.20;90.60;;;;;;5075215;28;20159;-66
2021/04/14 09:17:11;;;;;;;5.88;2.42;;;19.90;90.70;;;;;;5075072;28;20413;-64
2021/04/14 09:19:41;;;;;;;5.80;2.03;;;20.70;88.80;;;;;;5073081;28;20473;-64
2021/04/14 09:22:13;;;;;;;4.75;2.38;;;20.70;90.30;;;;;;5075029;28;20369;-62
2021/04/14 09:24:40;;;;;;;3.30;2.05;;;20.40;90.80;;;;;;5074458;28;20017;-64
2021/04/14 09:27:19;;;;;;;4.75;2.00;;;20.10;90.90;;;;;;5074641;28;20029;-63
2021/04/14 09:29:59;;;;;;;3.08;2.00;;;20.70;90.00;;;;;;5075099;28;20020;-64
2021/04/14 09:32:50;;;;;;;3.55;2.33;;;20.80;90.70;;;;;;5074869;28;20456;-66
2021/04/14 09:35:16;;;;;;;3.03;2.20;;;20.50;91.00;;;;;;5074793;28;20024;-65
2021/04/14 09:37:42;;;;;;;4.45;2.10;;;20.30;90.90;;;;;;5074315;28;20494;-66
2021/04/14 09:40:08;;;;;;;4.53;1.92;;;20.80;90.70;;;;;;5073415;28;20441;-66
2021/04/14 09:42:43;;;;;;;2.92;1.70;;;21.00;90.40;;;;;;5073463;28;20304;-64
2021/04/14 09:45:27;;;;;;;3.70;2.00;;;20.70;90.80;;;;;;5072800;28;20452;-66
2021/04/14 09:47:54;;;;;;;6.30;2.08;;;20.50;90.90;;;;;;5074556;28;20480;-64
2021/04/14 09:50:29;;;;;;;6.00;1.75;;;20.50;91.40;;;;;;5072363;28;20041;-69
2021/04/14 09:53:00;;;;;;;2.95;2.05;;;21.10;90.40;;;;;;5071242;28;20537;-65
2021/04/14 09:55:31;;;;;;;4.07;2.03;;;21.00;90.80;;;;;;5072918;28;20032;-63
2021/04/14 09:58:03;;;;;;;3.13;1.95;;;20.80;91.20;;;;;;5053747;28;20036;-67
2021/04/14 10:00:31;;;;;;;3.03;1.90;;;20.60;91.20;;;;;;5069793;28;20043;-65
2021/04/14 10:03:00;;;;;;;4.18;2.20;;;20.70;91.30;;;;;;5073494;28;20028;-68
2021/04/14 10:05:31;;;;;;;3.50;1.98;;;21.10;90.40;;;;;;5073693;28;20021;-68
2021/04/14 10:08:04;;;;;;;4.45;2.03;;;20.90;90.70;;;;;;5073923;28;20032;-61
2021/04/14 10:10:38;;;;;;;4.47;2.10;;;20.80;91.10;;;;;;5072069;28;20020;-68
2021/04/14 10:13:10;;;;;;;;;;;20.70;91.10;;;;;;5073407;28;20028;-66
2021/04/14 10:15:41;;;;;;;3.30;2.33;;;21.10;90.30;;;;;;5073319;28;19916;-65
2021/04/14 10:18:17;;;;;;;3.17;2.00;;;20.90;90.70;;;;;;5073752;28;20029;-68
2021/04/14 10:20:42;;;;;;;4.18;2.40;;;20.80;90.90;;;;;;5073779;28;20028;-70
2021/04/14 10:23:11;;;;;;;4.80;2.03;;;20.60;91.20;;;;;;5073871;28;20369;-70
2021/04/14 10:25:40;;;;;;;3.17;2.20;;;20.50;90.80;;;;;;5073771;28;20031;-69
2021/04/14 10:28:09;;;;;;;5.30;2.25;;;20.40;91.00;;;;;;5072831;28;20560;-66
2021/04/14 10:30:43;;;;;;;2.53;1.63;;;20.30;90.80;;;;;;5072261;28;20020;-66
2021/04/14 10:33:17;;;;;;;4.35;1.90;;;20.20;92.10;;;;;;5068008;28;20115;-70
2021/04/14 10:35:43;;;;;;;2.83;2.00;;;20.20;91.20;;;;;;5076884;28;20033;-72
2021/04/14 10:38:09;;;;;;;2.92;1.83;;;20.10;91.00;;;;;;5073469;28;20117;-69
2021/04/14 10:40:40;;;;;;;2.17;1.50;;;20.00;91.00;;;;;;5073474;28;20107;-73
2021/04/14 10:43:20;;;;;;;3.30;1.70;;;19.90;91.30;;;;;;5073423;28;20020;-70
2021/04/14 10:46:10;;;;;;;3.40;2.00;;;19.90;91.20;;;;;;5087621;28;20024;-70
2021/04/14 10:48:41;;;;;;;3.03;1.80;;;19.90;91.20;;;;;;5093689;28;20227;-70
2021/04/14 10:51:22;;;;;;;4.20;1.75;;;19.80;91.20;;;;;;5083657;28;20488;-70
2021/04/14 10:53:54;;;;;;;4.50;2.17;;;19.80;91.80;;;;;;5073451;28;20108;-66
2021/04/14 10:56:25;;;;;;;3.25;2.13;;;19.70;90.80;;;;;;5072308;28;20484;-65
2021/04/14 10:58:52;;;;;;;3.42;2.13;;;19.50;90.50;;;;;;5072057;28;20051;-63
2021/04/14 11:01:29;;;;;;;3.67;2.03;;;19.40;90.20;;;;;;5081511;28;20066;-65
2021/04/14 11:04:26;;;;;;;2.95;1.77;;;19.30;90.00;;;;;;5092446;28;20056;-63
2021/04/14 11:06:57;;;;;;;3.20;1.60;;;19.30;90.00;;;;;;5091974;28;20111;-64
2021/04/14 11:09:23;;;;;;;2.85;1.92;;;19.30;89.60;;;;;;5084974;28;20038;-63
2021/04/14 11:11:49;;;;;;;2.60;1.90;;;19.30;89.80;;;;;;5072640;28;20039;-64
2021/04/14 11:14:17;;;;;;;3.30;1.83;;;19.30;89.30;;;;;;5072666;28;20023;-63
2021/04/14 11:16:45;;;;;;;2.88;2.03;;;19.30;89.20;;;;;;5074886;28;20028;-65
2021/04/14 11:19:12;;;;;;;3.05;1.90;;;19.30;89.00;;;;;;5072634;28;20033;-64
2021/04/14 11:21:37;;;;;;;3.97;2.20;;;19.20;88.70;;;;;;5071614;28;20086;-65
2021/04/14 11:24:21;;;;;;;3.05;2.10;;;19.20;88.40;;;;;;5072226;28;20028;-66
2021/04/14 11:26:59;;;;;;;3.80;2.20;;;19.20;88.30;;;;;;5071501;28;20039;-63
2021/04/14 11:29:28;;;;;;;3.05;2.10;;;19.20;88.20;;;;;;5071141;28;20032;-63
2021/04/14 11:31:55;;;;;;;2.90;1.92;;;19.20;88.00;;;;;;5072067;28;20100;-64
2021/04/14 11:34:25;;;;;;;3.78;2.10;;;19.20;87.90;;;;;;5072359;28;20032;-65
2021/04/14 11:37:22;;;;;;;3.17;1.90;;;19.20;87.70;;;;;;5072267;28;20017;-65
2021/04/14 11:40:16;;;;;;;4.05;2.05;;;19.20;87.60;;;;;;5072750;28;20024;-65
2021/04/14 11:42:56;;;;;;;3.10;1.92;;;19.20;87.40;;;;;;5063006;28;20044;-63
2021/04/14 11:45:38;;;;;;;3.15;2.08;;;19.20;87.30;;;;;;5072311;28;20082;-64
2021/04/14 11:48:10;;;;;;;2.83;2.00;;;19.20;87.10;;;;;;5072087;28;20496;-64
2021/04/14 11:50:37;;;;;;;2.70;1.80;;;19.20;87.00;;;;;;5076670;28;20039;-63
2021/04/14 11:53:17;;;;;;;3.42;2.08;;;19.20;86.60;;;;;;5073209;28;20488;-63
2021/04/14 11:55:42;;;;;;;3.63;1.90;;;19.10;86.40;;;;;;5066528;28;20046;-64
2021/04/14 11:58:39;;;;;;;3.58;1.73;;;19.10;85.90;;;;;;5066366;28;20021;-62
2021/04/14 12:01:06;;;;;;;4.50;1.83;;;19.10;86.20;;;;;;5056503;28;20069;-65
2021/04/14 12:03:40;;;;;;;2.42;1.60;;;19.10;86.10;;;;;;5051976;28;20457;-66
2021/04/14 12:06:06;;;;;;;2.45;1.70;;;19.10;86.20;;;;;;5064243;28;20036;-63
2021/04/14 12:08:32;;;;;;;3.40;1.55;;;19.10;86.20;;;;;;5063122;28;20416;-65
2021/04/14 12:11:02;;;;;;;3.90;1.70;;;19.00;86.60;;;;;;5052016;28;20017;-65
2021/04/14 12:13:28;;;;;;;2.67;1.45;;;19.10;87.30;;;;;;5052169;28;20052;-67
2021/04/14 12:15:54;;;;;;;5.55;1.50;;;19.10;88.60;;;;;;5053025;28;20047;-68
2021/04/14 12:18:20;;;;;;;5.20;1.75;;;19.20;89.70;;;;;;5056846;28;20033;-65
2021/04/14 12:20:47;;;;;;;3.13;1.50;;;19.30;89.40;;;;;;5063927;28;20033;-64
2021/04/14 12:23:13;;;;;;;3.38;1.60;;;19.40;90.00;;;;;;5071558;28;20120;-65
2021/04/14 12:25:39;;;;;;;3.35;1.60;;;19.50;90.30;;;;;;5071556;28;20025;-66
2021/04/14 12:28:05;;;;;;;4.30;1.63;;;19.60;90.20;;;;;;5071151;28;20099;-68
2021/04/14 12:30:32;;;;;;;3.55;1.55;;;19.70;90.70;;;;;;5071026;28;20453;-64
2021/04/14 12:32:58;;;;;;;4.18;1.27;;;19.70;90.70;;;;;;5071142;28;20032;-65
2021/04/14 12:35:25;;;;;;;3.70;1.50;;;19.80;90.80;;;;;;5071702;28;20033;-64
2021/04/14 12:37:51;;;;;;;4.70;1.30;;;19.90;90.80;;;;;;5074223;28;20066;-64
2021/04/14 12:40:17;;;;;;;2.80;1.20;;;19.90;91.10;;;;;;5075833;28;20056;-70
2021/04/14 12:42:43;;;;;;;4.10;1.40;;;20.00;91.10;;;;;;5075867;28;20601;-66
2021/04/14 12:45:36;;;;;;;2.10;1.35;;;20.00;91.50;;;;;;5075545;28;20012;-62
2021/04/14 12:48:05;;;;;;;2.10;1.00;;;20.10;91.20;;;;;;5075811;28;20380;-68
2021/04/14 12:50:30;;;;;;;3.60;1.20;;;20.10;91.20;;;;;;5075412;28;20059;-66
2021/04/14 12:52:58;;;;;;;2.15;1.30;;;20.00;91.30;;;;;;5075427;28;20357;-65
2021/04/14 12:55:37;;;;;;;4.70;1.27;;;20.00;91.30;;;;;;5075372;28;20384;-64
2021/04/14 12:58:04;;;;;;;3.03;1.20;;;20.00;91.40;;;;;;5075506;28;20036;-64
2021/04/14 13:00:30;;;;;;;2.33;1.20;;;20.10;91.40;;;;;;5074965;28;20036;-60